Time;durP1;ratioP1;P1;durP2;ratioP2;P2;SDS_P1;SDS_P2;PMS_P1;PMS_P2;Temp;Humidity;BMP_temperature;BMP_pressure;BME280_temperature;BME280_humidity;BME280_pressure;Samples;Min_cycle;Max_cycle;Signal;HPM_P1;HPM_P2
2023/12/05 00:00:47;;;;;;;15.93;9.10;;;;;;;-141.97;82.72;46383.34;4991596;28;20163;-86
2023/12/05 00:03:12;;;;;;;20.30;9.50;;;;;;;-141.97;83.12;46592.78;4991771;28;20751;-86
2023/12/05 00:05:37;;;;;;;16.33;8.73;;;;;;;-141.97;82.99;46223.88;4991989;28;20163;-86
2023/12/05 00:08:04;;;;;;;15.27;8.90;;;;;;;-141.97;82.78;46075.94;4991943;28;20255;-85
2023/12/05 00:10:30;;;;;;;17.07;9.10;;;;;;;-141.97;82.71;46181.59;4991667;28;20167;-86
2023/12/05 00:12:55;;;;;;;17.07;8.90;;;;;;;-141.97;82.21;46083.63;4991966;28;20403;-86
2023/12/05 00:15:20;;;;;;;17.77;9.43;;;;;;;-141.97;82.25;46214.25;4991900;28;20187;-85
2023/12/05 00:17:46;;;;;;;16.70;8.50;;;;;;;-141.97;82.79;46554.34;5007027;28;20625;-85
2023/12/05 00:20:12;;;;;;;16.07;8.73;;;;;;;-141.97;83.25;46047.13;4991703;28;20168;-85
2023/12/05 00:22:38;;;;;;;16.77;8.97;;;;;;;-141.97;82.84;46112.44;4990452;28;20193;-84
2023/12/05 00:25:04;;;;;;;18.30;9.43;;;;;;;-141.97;83.02;45962.59;4994450;28;20422;-85
2023/12/05 00:27:29;;;;;;;18.13;9.67;;;;;;;-141.97;82.72;46521.69;4994510;28;20183;-86
2023/12/05 00:29:55;;;;;;;16.70;9.00;;;;;;;-141.97;82.51;46133.56;4994808;28;20456;-86
2023/12/05 00:32:20;;;;;;;19.53;10.50;;;;;;;-141.97;82.64;46072.09;4995512;28;20164;-86
2023/12/05 00:34:46;;;;;;;16.87;8.70;;;;;;;-141.97;82.47;46131.66;4995055;28;20171;-85
2023/12/05 00:37:11;;;;;;;18.07;8.77;;;;;;;-141.97;82.48;46068.25;5010142;28;20198;-86
2023/12/05 00:39:37;;;;;;;16.90;9.13;;;;;;;-141.97;82.27;46485.19;4993943;28;20167;-86
2023/12/05 00:42:02;;;;;;;15.83;8.60;;;;;;;-141.97;81.84;46127.81;4994284;28;20194;-86
2023/12/05 00:44:28;;;;;;;16.53;8.30;;;;;;;-141.97;81.90;46001.00;4994019;28;20171;-84
2023/12/05 00:46:53;;;;;;;17.23;8.87;;;;;;;-141.97;81.92;46475.56;4998191;28;20190;-84
2023/12/05 00:49:19;;;;;;;16.50;8.70;;;;;;;-141.97;82.25;46164.31;5005357;28;20286;-85
2023/12/05 00:51:44;;;;;;;16.73;8.73;;;;;;;-141.97;81.94;45991.41;4997260;28;20564;-86
2023/12/05 00:54:10;;;;;;;15.57;8.30;;;;;;;-141.97;81.92;46256.53;4994008;28;20305;-83
2023/12/05 00:56:36;;;;;;;16.40;8.73;;;;;;;-141.97;81.74;46667.72;5010349;28;20660;-84
2023/12/05 00:59:02;;;;;;;16.13;8.60;;;;;;;-141.97;81.84;45989.47;5010913;28;20175;-85
2023/12/05 01:01:27;;;;;;;18.30;9.03;;;;;;;-141.97;81.39;46024.06;4994087;28;20899;-85
2023/12/05 01:03:54;;;;;;;16.10;8.60;;;;;;;-141.97;81.37;46223.88;4993812;28;20263;-82
2023/12/05 01:06:20;;;;;;;17.20;8.77;;;;;;;-141.97;81.58;46585.09;4994819;28;20152;-83
2023/12/05 01:08:45;;;;;;;15.97;8.43;;;;;;;-141.97;81.12;46062.47;4993523;28;20420;-82
2023/12/05 01:11:11;;;;;;;17.27;8.53;;;;;;;-141.97;81.43;46091.31;4994797;28;20258;-83
2023/12/05 01:13:36;;;;;;;16.90;8.73;;;;;;;-141.97;81.36;46189.28;5003231;28;20207;-82
2023/12/05 01:16:03;;;;;;;16.10;8.30;;;;;;;-141.97;81.28;46241.16;5019562;28;20230;-83
2023/12/05 01:18:29;;;;;;;16.60;8.67;;;;;;;-141.97;81.58;46223.88;5013022;28;20279;-83
2023/12/05 01:20:54;;;;;;;18.17;8.80;;;;;;;-141.97;81.34;46569.72;5006325;28;20433;-84
2023/12/05 01:23:20;;;;;;;16.00;8.50;;;;;;;-141.97;80.91;46191.22;5008224;28;20267;-84
2023/12/05 01:25:45;;;;;;;16.30;8.23;;;;;;;-141.97;80.59;46058.63;5000820;28;20162;-84
2023/12/05 01:28:10;;;;;;;16.33;8.07;;;;;;;-141.97;79.46;46241.16;5009741;28;20686;-83
2023/12/05 01:30:36;;;;;;;14.83;7.93;;;;;;;-141.97;79.72;45933.75;4995395;28;20171;-84
2023/12/05 01:33:01;;;;;;;14.87;8.13;;;;;;;-141.97;78.80;46031.75;4993156;28;20602;-84
2023/12/05 01:35:27;;;;;;;14.00;7.83;;;;;;;-141.97;77.85;46123.97;5008869;28;20287;-83
2023/12/05 01:37:52;;;;;;;14.60;7.87;;;;;;;-141.97;77.58;45997.16;5008889;28;20262;-84
2023/12/05 01:40:18;;;;;;;16.63;7.97;;;;;;;-141.97;77.37;46442.91;4992750;28;20229;-83
2023/12/05 01:42:44;;;;;;;15.70;7.90;;;;;;;-141.97;77.07;46173.91;4992633;28;20187;-84
2023/12/05 01:45:09;;;;;;;14.07;7.83;;;;;;;-141.97;76.25;46054.81;4994796;28;20163;-86
2023/12/05 01:47:35;;;;;;;15.80;8.80;;;;;;;-141.97;74.95;46097.06;5017811;28;20242;-87
2023/12/05 01:50:03;;;;;;;16.07;8.60;;;;;;;-141.97;75.33;46060.56;5015128;28;20183;-84
2023/12/05 01:52:30;;;;;;;17.07;8.53;;;;;;;-141.97;75.26;46688.84;5001360;28;20468;-84
2023/12/05 01:54:56;;;;;;;15.17;7.93;;;;;;;-141.97;74.73;46600.47;4992411;28;20403;-84
2023/12/05 01:57:23;;;;;;;15.27;7.67;;;;;;;-141.97;74.07;46235.41;4993746;28;20429;-83
2023/12/05 01:59:50;;;;;;;15.63;8.30;;;;;;;-141.97;74.42;46060.56;4992756;28;20167;-85
2023/12/05 02:02:16;;;;;;;14.97;7.70;;;;;;;-141.97;74.60;46089.38;4993371;28;20414;-84
2023/12/05 02:04:42;;;;;;;14.93;7.83;;;;;;;-141.97;74.00;46527.44;4994049;28;20961;-86
2023/12/05 02:07:08;;;;;;;14.97;7.67;;;;;;;-141.97;74.58;46231.56;5008837;28;20251;-85
2023/12/05 02:09:35;;;;;;;14.90;7.90;;;;;;;-141.97;74.32;46250.78;4992662;28;20407;-86
2023/12/05 02:12:01;;;;;;;16.30;8.00;;;;;;;-141.97;74.42;45981.78;5008785;28;20576;-86
2023/12/05 02:14:26;;;;;;;14.90;8.43;;;;;;;-141.97;74.19;46227.72;4992562;28;20414;-86
2023/12/05 02:17:06;;;;;;;16.50;8.03;;;;;;;-141.97;74.15;46145.09;4991690;28;20206;-86
2023/12/05 02:19:39;;;;;;;14.00;7.70;;;;;;;-141.97;73.28;46239.25;4992071;28;20281;-86
2023/12/05 02:22:22;;;;;;;14.30;7.57;;;;;;;-141.97;73.30;46400.63;4994693;28;20866;-85
2023/12/05 02:25:12;;;;;;;14.23;8.20;;;;;;;-141.97;73.34;46260.38;4994639;28;20438;-86
2023/12/05 02:27:39;;;;;;;16.13;8.40;;;;;;;-141.97;73.60;46133.56;4995918;28;20809;-85
2023/12/05 02:30:05;;;;;;;16.60;8.03;;;;;;;-141.97;73.28;46515.91;4993903;28;20438;-85
2023/12/05 02:32:31;;;;;;;18.03;9.30;;;;;;;-141.97;73.43;46235.41;4994088;28;20403;-85
2023/12/05 02:34:57;;;;;;;15.53;8.10;;;;;;;-141.97;73.77;46114.34;4993972;28;20858;-85
2023/12/05 02:37:40;;;;;;;17.33;8.87;;;;;;;-141.97;74.11;46223.88;4993236;28;20186;-84
2023/12/05 02:40:10;;;;;;;14.90;8.33;;;;;;;-141.97;73.88;46258.44;4993485;28;20202;-85
2023/12/05 02:42:36;;;;;;;16.73;8.97;;;;;;;-141.97;73.89;46185.44;4993588;28;20406;-85
2023/12/05 02:45:04;;;;;;;17.80;9.10;;;;;;;-141.97;73.17;46235.41;4993692;28;20487;-85
2023/12/05 02:47:31;;;;;;;15.73;8.20;;;;;;;-141.97;73.19;46220.03;4993410;28;20394;-85
2023/12/05 02:49:57;;;;;;;18.57;8.97;;;;;;;-141.97;73.43;46254.59;4992695;28;20494;-85
2023/12/05 02:52:23;;;;;;;18.37;9.10;;;;;;;-141.97;73.23;46110.50;5000871;28;20436;-84
2023/12/05 02:54:48;;;;;;;17.60;8.70;;;;;;;-141.97;73.10;46175.84;4993219;28;20564;-85
2023/12/05 02:57:14;;;;;;;16.20;8.20;;;;;;;-141.97;73.25;46510.16;4993012;28;20203;-85
2023/12/05 02:59:39;;;;;;;19.40;9.13;;;;;;;-141.97;73.37;46168.16;4992663;28;20259;-85
2023/12/05 03:02:05;;;;;;;19.17;9.20;;;;;;;-141.97;73.07;46097.06;4993757;28;20266;-85
2023/12/05 03:04:30;;;;;;;18.23;8.50;;;;;;;-141.97;73.33;46054.81;4993404;28;20269;-84
2023/12/05 03:06:56;;;;;;;16.90;9.20;;;;;;;-141.97;73.25;46221.94;4993817;28;20167;-84
2023/12/05 03:09:21;;;;;;;17.53;8.90;;;;;;;-141.97;73.05;46527.44;4993340;28;20191;-84
2023/12/05 03:11:47;;;;;;;17.03;9.03;;;;;;;-141.97;73.16;46220.03;4993338;28;20589;-85
2023/12/05 03:14:13;;;;;;;17.63;9.50;;;;;;;-141.97;73.48;46039.44;4993016;28;20634;-84
2023/12/05 03:16:39;;;;;;;21.93;10.70;;;;;;;-141.97;74.08;46615.84;4993654;28;20262;-85
2023/12/05 03:19:04;;;;;;;20.10;9.90;;;;;;;-141.97;74.05;46035.59;4993357;28;20897;-85
2023/12/05 03:21:30;;;;;;;18.00;9.27;;;;;;;-141.97;74.29;46281.50;4991527;28;20229;-84
2023/12/05 03:23:55;;;;;;;22.63;10.17;;;;;;;-141.97;73.80;46229.63;4996500;28;20163;-84
2023/12/05 03:26:22;;;;;;;17.57;9.07;;;;;;;-141.97;74.37;46246.94;4993846;28;20221;-84
2023/12/05 03:28:49;;;;;;;21.37;9.57;;;;;;;-141.97;74.23;46235.41;4992666;28;20179;-84
2023/12/05 03:31:15;;;;;;;19.97;9.70;;;;;;;-141.97;73.97;46658.13;4992516;28;20838;-84
2023/12/05 03:33:40;;;;;;;19.77;10.03;;;;;;;-141.97;74.35;46210.41;4991209;28;20476;-84
2023/12/05 03:36:06;;;;;;;18.87;9.97;;;;;;;-141.97;74.46;46010.63;4992446;28;20191;-84
2023/12/05 03:38:32;;;;;;;21.63;10.07;;;;;;;-141.97;74.63;46225.78;4992416;28;20570;-83
2023/12/05 03:40:57;;;;;;;23.83;10.50;;;;;;;-141.97;74.66;46225.78;4992692;28;20163;-83
2023/12/05 03:43:23;;;;;;;22.30;10.77;;;;;;;-141.97;74.96;46135.50;5002273;28;20178;-84
2023/12/05 03:45:48;;;;;;;20.27;10.43;;;;;;;-141.97;74.87;46220.03;5010586;28;20195;-86
2023/12/05 03:48:14;;;;;;;19.57;10.03;;;;;;;-141.97;74.75;46070.16;5008364;28;20175;-84
2023/12/05 03:50:39;;;;;;;23.93;11.50;;;;;;;-141.97;75.67;46204.66;4998947;28;20164;-84
2023/12/05 03:53:05;;;;;;;27.97;11.97;;;;;;;-141.97;76.29;46081.69;4998646;28;20167;-85
2023/12/05 03:55:35;;;;;;;27.47;12.57;;;;;;;-141.97;76.52;46018.28;4999377;28;20244;-84
2023/12/05 03:58:01;;;;;;;32.17;13.70;;;;;;;-141.97;76.67;46392.94;4992722;28;20159;-84
2023/12/05 04:00:27;;;;;;;35.53;13.93;;;;;;;-141.97;77.63;46364.13;4991265;28;20497;-85
2023/12/05 04:02:52;;;;;;;41.37;15.30;;;;;;;-141.97;80.80;46008.69;4992846;28;20908;-84
2023/12/05 04:05:18;;;;;;;41.83;15.63;;;;;;;-141.97;81.65;46223.88;4992428;28;20175;-84
2023/12/05 04:07:44;;;;;;;43.97;16.73;;;;;;;-141.97;81.71;46248.84;4992838;28;20170;-84
2023/12/05 04:10:10;;;;;;;42.63;17.43;;;;;;;-141.97;81.58;46008.69;4992969;28;20163;-83
2023/12/05 04:12:35;;;;;;;44.10;16.27;;;;;;;-141.97;81.54;45991.41;4993418;28;20437;-84
2023/12/05 04:15:01;;;;;;;42.03;16.67;;;;;;;-141.97;81.78;46173.91;5000920;28;20155;-83
2023/12/05 04:17:26;;;;;;;42.47;15.33;;;;;;;-141.97;82.16;46231.56;5014382;28;20171;-83
2023/12/05 04:19:52;;;;;;;46.47;17.13;;;;;;;-141.97;82.56;46099.00;5000987;28;20171;-82
2023/12/05 04:22:20;;;;;;;48.47;18.40;;;;;;;-141.97;82.99;46225.78;4995125;28;20175;-87
2023/12/05 04:24:45;;;;;;;48.57;18.87;;;;;;;-141.97;82.82;46496.72;4997413;28;20175;-86
2023/12/05 04:27:11;;;;;;;43.57;16.83;;;;;;;-141.97;83.05;45912.63;5001536;28;20419;-86
2023/12/05 04:29:36;;;;;;;48.50;17.63;;;;;;;-141.97;83.58;45908.78;4993886;28;20172;-84
2023/12/05 04:33:25;;;;;;;48.30;18.83;;;;;;;-141.97;83.90;46377.56;4992231;28;20243;-84
2023/12/05 04:36:50;;;;;;;;;;;;;;;;;;;;;
2023/12/05 04:42:36;;;;;;;63.13;24.30;;;;;;;-141.97;84.74;46379.50;4857406;29;20485;-88
2023/12/05 04:45:01;;;;;;;65.40;25.07;;;;;;;-141.97;84.46;46204.66;4857598;29;20420;-86
2023/12/05 04:47:29;;;;;;;57.07;22.37;;;;;;;-141.97;85.26;46193.13;4858907;29;20204;-85
2023/12/05 04:49:54;;;;;;;52.92;20.80;;;;;;;-141.97;85.77;46473.66;4861568;29;20909;-87
2023/12/05 04:52:20;;;;;;;58.90;24.50;;;;;;;-141.97;85.08;46212.34;4845175;29;20443;-89
2023/12/05 04:54:45;;;;;;;56.65;24.80;;;;;;;-141.97;84.32;46100.91;4860130;29;20428;-92
2023/12/05 04:57:10;;;;;;;49.13;19.67;;;;;;;-141.97;82.11;46027.91;4864729;29;20700;-88
2023/12/05 04:59:36;;;;;;;44.97;17.77;;;;;;;-141.97;81.90;46031.75;4857718;29;20165;-88
2023/12/05 05:02:01;;;;;;;47.63;18.77;;;;;;;-141.97;81.81;46243.09;4840989;29;20536;-86
2023/12/05 05:04:27;;;;;;;43.73;18.00;;;;;;;-141.97;80.93;45997.16;4856519;29;20636;-86
2023/12/05 05:06:52;;;;;;;43.37;16.87;;;;;;;-141.97;80.42;46262.28;4857018;29;20247;-87
2023/12/05 05:09:17;;;;;;;35.40;15.40;;;;;;;-141.97;79.44;46565.88;4873326;29;20330;-87
2023/12/05 05:11:43;;;;;;;36.17;16.27;;;;;;;-141.97;80.58;46223.88;4897779;29;20262;-85
2023/12/05 05:14:08;;;;;;;39.23;16.70;;;;;;;-141.97;81.63;46135.50;4930807;29;20193;-87
2023/12/05 05:16:34;;;;;;;39.87;16.83;;;;;;;-141.97;81.81;46152.78;4993546;28;20211;-83
2023/12/05 05:18:59;;;;;;;44.57;17.83;;;;;;;-141.97;81.25;46152.78;5000483;28;20242;-85
2023/12/05 05:21:25;;;;;;;68.70;30.53;;;;;;;-141.97;81.37;46594.69;5012722;28;20189;-85
2023/12/05 05:23:50;;;;;;;51.17;21.70;;;;;;;-141.97;81.52;46054.81;5013578;28;20174;-85
2023/12/05 05:26:16;;;;;;;45.30;19.23;;;;;;;-141.97;81.68;45974.09;5016261;28;20238;-85
2023/12/05 05:28:41;;;;;;;60.43;24.00;;;;;;;-141.97;81.79;46462.13;5014783;28;20185;-85
2023/12/05 05:31:07;;;;;;;59.83;23.17;;;;;;;-141.97;81.93;46490.94;5018116;28;20377;-86
2023/12/05 05:33:32;;;;;;;63.63;22.93;;;;;;;-141.97;81.98;46091.31;5020408;28;20167;-85
2023/12/05 05:35:57;;;;;;;64.77;23.73;;;;;;;-141.97;82.02;46122.03;5017985;28;20230;-85
2023/12/05 05:38:23;;;;;;;62.17;26.00;;;;;;;-141.97;82.37;45868.44;5000767;28;20254;-85
2023/12/05 05:40:48;;;;;;;60.60;22.97;;;;;;;-141.97;82.30;45977.94;5004191;28;20186;-87
2023/12/05 05:45:49;;;;;;;53.50;20.57;;;;;;;-141.97;82.21;46266.13;5396309;22;20237;-85
2023/12/05 05:48:15;;;;;;;59.93;25.43;;;;;;;-141.97;82.30;46464.03;5031737;28;20570;-85
2023/12/05 05:50:41;;;;;;;57.90;23.70;;;;;;;-141.97;82.28;45941.44;5050041;28;20245;-86
2023/12/05 05:53:06;;;;;;;56.33;22.20;;;;;;;-141.97;81.96;46389.09;5050120;28;20162;-86
2023/12/05 05:55:32;;;;;;;55.30;20.57;;;;;;;-141.97;81.59;45937.59;5046184;28;20491;-86
2023/12/05 05:57:57;;;;;;;58.40;23.47;;;;;;;-141.97;81.36;46227.72;5042132;28;20166;-85
2023/12/05 06:00:24;;;;;;;55.17;21.33;;;;;;;-141.97;81.33;46442.91;5022559;28;20189;-85
2023/12/05 06:02:49;;;;;;;54.23;22.60;;;;;;;-141.97;81.53;46097.06;5023040;28;20176;-85
2023/12/05 06:05:15;;;;;;;47.43;18.50;;;;;;;-141.97;81.78;46154.69;5038730;28;20900;-85
2023/12/05 06:07:40;;;;;;;48.20;19.20;;;;;;;-141.97;82.41;46014.44;5021525;28;20470;-85
2023/12/05 06:10:06;;;;;;;44.63;19.53;;;;;;;-141.97;81.80;46168.16;5021066;28;20177;-83
2023/12/05 06:12:32;;;;;;;48.43;19.43;;;;;;;-141.97;81.78;46093.22;5036051;28;20170;-83
2023/12/05 06:14:57;;;;;;;44.83;18.90;;;;;;;-141.97;81.86;46235.41;5000487;28;20463;-84
2023/12/05 06:17:23;;;;;;;47.17;19.23;;;;;;;-141.97;82.00;46139.34;5016837;28;20221;-84
2023/12/05 06:19:48;;;;;;;52.13;22.13;;;;;;;-141.97;81.80;46118.19;5019263;28;20217;-84
2023/12/05 06:22:13;;;;;;;69.27;29.53;;;;;;;-141.97;81.98;46227.72;5037535;28;20252;-83
2023/12/05 06:24:39;;;;;;;120.53;50.33;;;;;;;-141.97;82.02;46097.06;5033616;28;20166;-84
2023/12/05 06:27:05;;;;;;;99.33;42.13;;;;;;;-141.97;81.78;46020.22;5033663;28;20638;-84
2023/12/05 06:29:30;;;;;;;71.53;29.97;;;;;;;-141.97;81.54;46064.41;5016426;28;20197;-84
2023/12/05 06:31:56;;;;;;;56.67;23.10;;;;;;;-141.97;80.82;46223.88;5034051;28;20205;-84
2023/12/05 06:34:22;;;;;;;52.10;22.87;;;;;;;-141.97;80.39;46592.78;5036359;28;20193;-84
2023/12/05 06:36:47;;;;;;;52.53;21.83;;;;;;;-141.97;80.39;46083.63;5033672;28;20193;-84
2023/12/05 06:39:12;;;;;;;54.90;22.33;;;;;;;-141.97;80.57;46229.63;5033543;28;20409;-83
2023/12/05 06:41:38;;;;;;;54.63;23.13;;;;;;;-141.97;80.13;46223.88;5034036;28;20535;-84
2023/12/05 06:44:03;;;;;;;49.00;21.63;;;;;;;-141.97;80.33;46558.19;5017713;28;20178;-84
2023/12/05 06:46:29;;;;;;;52.27;22.30;;;;;;;-141.97;80.20;46535.13;5052295;28;20222;-84
2023/12/05 06:49:00;;;;;;;52.60;22.37;;;;;;;-141.97;80.21;46216.19;5055938;28;20192;-83
2023/12/05 06:51:26;;;;;;;58.10;24.13;;;;;;;-141.97;79.51;46031.75;5042378;28;20824;-83
2023/12/05 06:53:51;;;;;;;61.13;27.13;;;;;;;-141.97;79.79;46158.53;5033923;28;20444;-82
2023/12/05 06:56:18;;;;;;;71.50;31.60;;;;;;;-141.97;79.95;45995.25;5028551;28;20218;-82
2023/12/05 06:58:45;;;;;;;84.17;35.17;;;;;;;-141.97;79.89;46462.13;5012860;28;20269;-82
2023/12/05 07:01:10;;;;;;;76.33;33.97;;;;;;;-141.97;78.88;46281.50;5029582;28;20424;-82
2023/12/05 07:03:36;;;;;;;62.10;28.40;;;;;;;-141.97;78.71;45885.72;5012554;28;20549;-82
2023/12/05 07:06:01;;;;;;;71.60;30.03;;;;;;;-141.97;79.55;46312.25;5023068;28;20178;-87
2023/12/05 07:08:30;;;;;;;84.93;34.20;;;;;;;-141.97;80.09;45977.94;5032344;28;20168;-83
2023/12/05 07:10:55;;;;;;;56.33;25.13;;;;;;;-141.97;80.52;46312.25;5031311;28;20564;-84
2023/12/05 07:13:29;;;;;;;46.93;18.73;;;;;;;-141.97;81.93;45962.59;5032102;28;20440;-86
2023/12/05 07:19:45;;;;;;;;;;;;;;;;;;;;;
2023/12/05 07:29:24;;;;;;;54.97;29.07;;;;;;;-141.97;83.08;45949.13;4954676;29;20987;-85
2023/12/05 07:31:55;;;;;;;48.27;24.37;;;;;;;-141.97;83.01;46462.13;4953099;29;20440;-85
2023/12/05 07:34:26;;;;;;;61.60;29.20;;;;;;;-141.97;82.06;46220.03;4954233;28;20188;-87
2023/12/05 07:36:54;;;;;;;40.77;19.13;;;;;;;-141.97;81.66;45974.09;4941447;29;20476;-86
2023/12/05 07:39:31;;;;;;;40.17;20.90;;;;;;;-141.97;81.60;46160.47;4936653;29;20496;-87
2023/12/05 07:41:56;;;;;;;35.93;18.87;;;;;;;-141.97;80.47;46133.56;4952091;29;20431;-85
2023/12/05 07:44:46;;;;;;;63.03;30.60;;;;;;;-141.97;80.34;46089.38;4965155;28;20829;-87
2023/12/05 07:47:47;;;;;;;68.77;32.80;;;;;;;-141.97;79.31;46183.53;4945360;28;20199;-91
2023/12/05 07:51:02;;;;;;;39.30;20.30;;;;;;;-141.97;78.32;46125.88;4902265;29;20438;-89
2023/12/05 07:53:30;;;;;;;41.33;21.47;;;;;;;-141.97;79.90;46143.19;4862098;29;20444;-91
2023/12/05 07:55:55;;;;;;;35.47;17.57;;;;;;;-141.97;79.30;46135.50;4880491;29;20478;-89
2023/12/05 07:58:21;;;;;;;38.00;19.33;;;;;;;-141.97;78.08;46227.72;4893987;29;20434;-90
2023/12/05 08:00:47;;;;;;;67.77;31.27;;;;;;;-141.97;78.18;45997.16;4885153;29;20224;-88
2023/12/05 08:03:14;;;;;;;65.67;27.97;;;;;;;-141.97;76.93;45906.88;4913976;29;20179;-89
2023/12/05 08:05:40;;;;;;;37.63;19.17;;;;;;;-141.97;75.30;46093.22;4915524;29;20194;-89
2023/12/05 08:08:14;;;;;;;34.83;17.20;;;;;;;-141.97;74.47;46139.34;4895129;29;20442;-89
2023/12/05 08:10:40;;;;;;;38.90;19.63;;;;;;;-141.97;75.24;46118.19;4895619;29;20190;-90
2023/12/05 08:13:14;;;;;;;39.07;19.10;;;;;;;-141.97;74.71;46198.91;4899628;29;20446;-91
2023/12/05 08:15:39;;;;;;;35.03;17.93;;;;;;;-141.97;74.70;45993.31;4893668;29;20657;-89
2023/12/05 08:18:17;;;;;;;37.97;19.10;;;;;;;-141.97;73.91;46196.97;4909474;29;20522;-88
2023/12/05 08:21:00;;;;;;;34.20;15.97;;;;;;;-141.97;75.57;46200.81;4907594;29;20208;-90
2023/12/05 08:23:26;;;;;;;36.83;18.20;;;;;;;-141.97;74.47;46054.81;4897778;29;20426;-89
2023/12/05 08:25:52;;;;;;;33.60;18.07;;;;;;;-141.97;72.93;46193.13;4924421;29;20447;-87
2023/12/05 08:28:17;;;;;;;34.97;17.87;;;;;;;-141.97;72.56;45910.72;4957135;28;20448;-87
2023/12/05 08:30:43;;;;;;;39.93;20.23;;;;;;;-141.97;72.84;46147.03;5010122;28;20234;-89
2023/12/05 08:33:09;;;;;;;34.20;17.40;;;;;;;-141.97;72.26;46016.38;5004264;28;20281;-88
2023/12/05 08:35:34;;;;;;;36.63;18.90;;;;;;;-141.97;71.77;46523.59;4993787;28;20206;-88
2023/12/05 08:38:00;;;;;;;39.33;20.83;;;;;;;-141.97;71.66;46037.50;5013618;28;20841;-88
2023/12/05 08:40:25;;;;;;;95.93;42.10;;;;;;;-141.97;71.79;46431.38;5029772;28;20748;-89
2023/12/05 08:42:51;;;;;;;52.40;25.27;;;;;;;-141.97;71.51;45805.06;5014817;28;20174;-88
2023/12/05 08:45:18;;;;;;;47.37;23.07;;;;;;;-141.97;70.58;46022.13;5021624;28;20186;-87
2023/12/05 08:48:04;;;;;;;41.57;21.63;;;;;;;-141.97;69.86;46154.69;5036978;28;20204;-89
2023/12/05 08:50:52;;;;;;;48.95;30.48;;;;;;;-141.97;68.03;46154.69;5039019;28;20444;-90
2023/12/05 08:53:18;;;;;;;35.83;17.57;;;;;;;-141.97;67.87;45891.50;5036424;28;20174;-89
2023/12/05 10:16:30;;;;;;;43.50;20.93;;;;;;;-141.97;64.72;46385.25;4996858;28;20231;-88
2023/12/05 10:22:09;;;;;;;58.40;26.83;;;;;;;-141.97;67.70;46118.19;4954440;28;20281;-89
2023/12/05 10:25:15;;;;;;;66.93;29.77;;;;;;;-141.97;69.28;46137.41;4953685;29;20664;-90
2023/12/05 10:28:40;;;;;;;58.27;28.43;;;;;;;-141.97;68.79;46068.25;4937443;28;20185;-89
2023/12/05 10:35:37;;;;;;;48.20;21.80;;;;;;;-141.97;68.79;46187.38;4863178;29;20241;-87
2023/12/05 10:38:23;;;;;;;46.77;19.87;;;;;;;-141.97;68.76;46139.34;4843170;29;20684;-88
2023/12/05 10:41:28;;;;;;;46.80;20.80;;;;;;;-141.97;70.33;46181.59;4840079;29;20196;-89
2023/12/05 10:44:19;;;;;;;48.90;22.33;;;;;;;-141.97;71.26;46081.69;4823702;29;20193;-89
2023/12/05 10:46:45;;;;;;;63.47;27.40;;;;;;;-141.97;71.27;46093.22;4832874;29;20269;-87
2023/12/05 10:49:11;;;;;;;43.77;19.60;;;;;;;-141.97;71.23;46066.31;4829829;29;20283;-90
2023/12/05 10:56:08;;;;;;;43.00;20.03;;;;;;;-141.97;71.21;46150.84;4841040;29;20790;-92
2023/12/05 11:06:08;;;;;;;50.17;20.73;;;;;;;-141.97;70.83;46356.44;4788764;29;20190;-87
2023/12/05 11:08:35;;;;;;;52.73;25.07;;;;;;;-141.97;71.23;46569.72;4810648;29;20182;-90
2023/12/05 11:11:05;;;;;;;69.40;35.77;;;;;;;-141.97;70.66;45933.75;4785573;29;20228;-90
2023/12/05 11:13:32;;;;;;;51.50;25.60;;;;;;;-141.97;70.67;45914.56;4806451;29;20178;-90
2023/12/05 11:16:03;;;;;;;42.43;20.43;;;;;;;-141.97;70.53;45999.09;4803319;29;20237;-88
2023/12/05 11:18:43;;;;;;;41.23;18.63;;;;;;;-141.97;69.72;46143.19;4802519;29;20273;-88
2023/12/05 11:21:11;;;;;;;36.23;18.23;;;;;;;-141.97;70.01;46147.03;4785742;30;20202;-89
2023/12/05 11:23:59;;;;;;;50.17;23.40;;;;;;;-141.97;70.49;46141.25;4802418;29;20669;-89
2023/12/05 11:27:01;;;;;;;42.23;20.10;;;;;;;-141.97;70.18;46145.09;4803737;29;20175;-88
2023/12/05 11:29:51;;;;;;;61.43;27.63;;;;;;;-141.97;69.87;46150.84;4809039;29;20356;-88
2023/12/05 11:32:41;;;;;;;54.43;26.07;;;;;;;-141.97;70.48;46143.19;4842769;29;20198;-89
2023/12/05 11:35:16;;;;;;;52.80;22.43;;;;;;;-141.97;70.95;46070.16;4820272;29;20202;-88
2023/12/05 11:37:50;;;;;;;51.23;22.63;;;;;;;-141.97;70.54;46060.56;4817166;29;20230;-89
2023/12/05 11:40:17;;;;;;;61.37;26.60;;;;;;;-141.97;70.50;45951.06;4840009;29;20681;-89
2023/12/05 11:43:12;;;;;;;55.20;25.40;;;;;;;-141.97;71.00;46135.50;4939119;28;20193;-90
2023/12/05 11:45:38;;;;;;;58.17;24.47;;;;;;;-141.97;70.82;46141.25;4989778;28;20260;-87
2023/12/05 11:48:04;;;;;;;48.03;23.20;;;;;;;-141.97;71.17;45947.22;4992443;28;20199;-89
2023/12/05 11:50:43;;;;;;;49.10;23.03;;;;;;;-141.97;71.86;45901.09;4994710;28;20168;-89
2023/12/05 11:53:11;;;;;;;48.10;22.80;;;;;;;-141.97;71.69;45997.16;4997031;28;20229;-88
2023/12/05 11:55:41;;;;;;;63.53;25.60;;;;;;;-141.97;72.10;46150.84;4995937;28;20175;-88
2023/12/05 11:58:26;;;;;;;50.80;22.90;;;;;;;-141.97;72.44;45989.47;4995476;28;20156;-90
2023/12/05 12:00:51;;;;;;;48.10;22.53;;;;;;;-141.97;73.57;45966.44;5002420;28;20163;-90
2023/12/05 12:03:16;;;;;;;58.47;25.57;;;;;;;-141.97;73.43;45952.97;4996339;28;20177;-91
2023/12/05 12:05:42;;;;;;;59.97;26.63;;;;;;;-141.97;73.06;46604.31;4999540;28;20275;-90
2023/12/05 12:08:08;;;;;;;43.13;19.73;;;;;;;-141.97;73.01;46120.13;5002956;28;20176;-89
2023/12/05 12:10:33;;;;;;;51.23;23.30;;;;;;;-141.97;73.79;46158.53;5012585;28;20190;-89
2023/12/05 12:12:59;;;;;;;56.77;27.27;;;;;;;-141.97;73.88;46147.03;4997772;28;20229;-90
2023/12/05 12:15:25;;;;;;;38.30;20.67;;;;;;;-141.97;72.93;46154.69;5010904;28;20246;-92
2023/12/05 12:17:51;;;;;;;47.10;23.97;;;;;;;-141.97;73.42;45960.66;5023144;28;20301;-90
2023/12/05 12:20:17;;;;;;;52.70;25.73;;;;;;;-141.97;73.19;46419.84;4984864;28;20175;-90
2023/12/05 12:22:48;;;;;;;49.37;24.10;;;;;;;-141.97;72.52;46156.63;4979550;28;20262;-92
2023/12/05 12:25:14;;;;;;;41.00;19.77;;;;;;;-141.97;72.99;46517.84;4976315;28;21496;-91
2023/12/05 12:27:41;;;;;;;59.57;25.30;;;;;;;-141.97;73.74;45912.63;4977986;28;20168;-91
2023/12/05 12:30:13;;;;;;;79.10;28.20;;;;;;;-141.97;73.87;46302.66;4981259;28;20168;-92
2023/12/05 12:32:57;;;;;;;47.43;21.90;;;;;;;-141.97;73.71;45995.25;4970714;28;20175;-89
2023/12/05 12:35:24;;;;;;;74.13;27.90;;;;;;;-141.97;74.15;46158.53;4997554;28;20170;-91
2023/12/05 12:37:51;;;;;;;87.67;29.30;;;;;;;-141.97;74.11;46546.66;4981244;28;20633;-92
2023/12/05 12:40:18;;;;;;;58.30;23.87;;;;;;;-141.97;73.89;46035.59;4978546;28;20171;-88
2023/12/05 12:42:50;;;;;;;58.33;23.10;;;;;;;-141.97;74.05;46054.81;4993124;28;20199;-90
2023/12/05 12:45:15;;;;;;;50.37;23.37;;;;;;;-141.97;74.32;46604.31;4977211;28;20163;-90
2023/12/05 12:47:41;;;;;;;50.63;23.37;;;;;;;-141.97;74.45;46012.53;4998009;28;20171;-91
2023/12/05 12:50:07;;;;;;;50.03;24.83;;;;;;;-141.97;74.55;45947.22;4963715;28;20194;-89
2023/12/05 12:52:33;;;;;;;61.33;27.23;;;;;;;-141.97;75.16;45908.78;4988179;28;20199;-89
2023/12/05 12:54:58;;;;;;;65.93;27.57;;;;;;;-141.97;75.11;46510.16;4971709;28;20175;-89
2023/12/05 12:57:24;;;;;;;58.27;26.60;;;;;;;-141.97;75.21;46433.28;4998661;28;20188;-89
2023/12/05 12:59:53;;;;;;;56.17;25.03;;;;;;;-141.97;75.33;45933.75;4977282;28;20682;-87
2023/12/05 13:02:18;;;;;;;52.17;24.37;;;;;;;-141.97;74.87;46012.53;4983201;28;20167;-89
2023/12/05 13:04:44;;;;;;;50.83;23.63;;;;;;;-141.97;74.03;46010.63;4987680;28;20165;-90
2023/12/05 13:07:19;;;;;;;52.57;24.40;;;;;;;-141.97;73.33;45970.25;4984910;28;20655;-88
2023/12/05 13:09:45;;;;;;;64.33;27.13;;;;;;;-141.97;72.90;45778.16;4995745;28;20246;-87
2023/12/05 13:12:10;;;;;;;78.03;33.73;;;;;;;-141.97;72.71;46185.44;4978309;28;20198;-87